sensor_id;sensor_type;location;lat;lon;timestamp;pressure;altitude;pressure_sealevel;temperature;humidity
35676;BME280;21790;42.668;23.298;2023-02-11T00:02:23;96334.41;;;6.18;33.12
35676;BME280;21790;42.668;23.298;2023-02-11T00:04:48;96340.31;;;6.03;33.20
35676;BME280;21790;42.668;23.298;2023-02-11T00:07:17;96339.91;;;5.97;33.41
35676;BME280;21790;42.668;23.298;2023-02-11T00:09:42;96340.31;;;5.88;33.69
35676;BME280;21790;42.668;23.298;2023-02-11T00:12:08;96333.63;;;5.89;33.50
35676;BME280;21790;42.668;23.298;2023-02-11T00:14:33;96328.13;;;5.86;33.76
35676;BME280;21790;42.668;23.298;2023-02-11T00:17:01;96348.84;;;5.62;34.31
35676;BME280;21790;42.668;23.298;2023-02-11T00:19:26;96345.75;;;5.78;34.35
35676;BME280;21790;42.668;23.298;2023-02-11T00:21:52;96344.56;;;5.75;34.07
35676;BME280;21790;42.668;23.298;2023-02-11T00:24:20;96331.22;;;5.63;33.93
35676;BME280;21790;42.668;23.298;2023-02-11T00:26:45;96348.09;;;5.69;33.86
35676;BME280;21790;42.668;23.298;2023-02-11T00:29:11;96344.97;;;5.77;33.85
35676;BME280;21790;42.668;23.298;2023-02-11T00:31:36;96337.13;;;5.69;33.81
35676;BME280;21790;42.668;23.298;2023-02-11T00:34:02;96337.53;;;5.67;33.89
35676;BME280;21790;42.668;23.298;2023-02-11T00:36:28;96339.09;;;5.72;33.84
35676;BME280;21790;42.668;23.298;2023-02-11T00:38:55;96326.53;;;5.64;34.03
35676;BME280;21790;42.668;23.298;2023-02-11T00:41:21;96344.94;;;5.56;33.85
35676;BME280;21790;42.668;23.298;2023-02-11T00:43:47;96342.19;;;5.53;34.03
35676;BME280;21790;42.668;23.298;2023-02-11T00:46:14;96334.78;;;5.74;33.48
35676;BME280;21790;42.668;23.298;2023-02-11T00:48:39;96323.78;;;5.64;33.61
35676;BME280;21790;42.668;23.298;2023-02-11T00:51:05;96335.53;;;5.54;33.58
35676;BME280;21790;42.668;23.298;2023-02-11T00:53:31;96330.44;;;5.45;33.74
35676;BME280;21790;42.668;23.298;2023-02-11T00:55:57;96330.03;;;5.46;33.69
35676;BME280;21790;42.668;23.298;2023-02-11T00:58:23;96321.41;;;5.52;33.83
35676;BME280;21790;42.668;23.298;2023-02-11T01:00:49;96327.31;;;5.64;33.74
35676;BME280;21790;42.668;23.298;2023-02-11T01:03:15;96334.78;;;5.67;33.47
35676;BME280;21790;42.668;23.298;2023-02-11T01:05:40;96321.84;;;5.61;33.38
35676;BME280;21790;42.668;23.298;2023-02-11T01:08:06;96324.16;;;5.44;33.51
35676;BME280;21790;42.668;23.298;2023-02-11T01:10:32;96326.50;;;5.42;33.51
35676;BME280;21790;42.668;23.298;2023-02-11T01:12:57;96307.72;;;5.44;33.62
35676;BME280;21790;42.668;23.298;2023-02-11T01:15:23;96324.09;;;5.23;34.34
35676;BME280;21790;42.668;23.298;2023-02-11T01:17:49;96321.41;;;5.34;33.79
35676;BME280;21790;42.668;23.298;2023-02-11T01:20:20;96307.72;;;5.44;33.68
35676;BME280;21790;42.668;23.298;2023-02-11T01:22:46;96324.53;;;5.43;33.70
35676;BME280;21790;42.668;23.298;2023-02-11T01:25:12;96332.34;;;5.41;33.59
35676;BME280;21790;42.668;23.298;2023-02-11T01:27:37;96314.34;;;5.47;33.33
35676;BME280;21790;42.668;23.298;2023-02-11T01:30:05;96317.09;;;5.40;33.54
35676;BME280;21790;42.668;23.298;2023-02-11T01:32:32;96326.88;;;5.37;33.81
35676;BME280;21790;42.668;23.298;2023-02-11T01:34:57;96312.81;;;5.50;33.37
35676;BME280;21790;42.668;23.298;2023-02-11T01:37:24;96306.50;;;5.31;33.64
35676;BME280;21790;42.668;23.298;2023-02-11T01:39:50;96313.16;;;5.27;33.73
35676;BME280;21790;42.668;23.298;2023-02-11T01:42:19;96304.50;;;5.21;34.22
35676;BME280;21790;42.668;23.298;2023-02-11T01:44:49;96308.81;;;5.22;33.87
35676;BME280;21790;42.668;23.298;2023-02-11T01:47:16;96304.03;;;4.98;34.44
35676;BME280;21790;42.668;23.298;2023-02-11T01:49:45;96298.66;;;5.26;33.98
35676;BME280;21790;42.668;23.298;2023-02-11T01:52:24;96313.09;;;5.09;34.15
35676;BME280;21790;42.668;23.298;2023-02-11T01:54:55;96308.06;;;5.32;34.05
35676;BME280;21790;42.668;23.298;2023-02-11T01:57:42;96306.06;;;5.12;34.10
35676;BME280;21790;42.668;23.298;2023-02-11T02:10:46;96303.28;;;5.01;34.00
35676;BME280;21790;42.668;23.298;2023-02-11T02:13:13;96308.78;;;5.01;33.78
35676;BME280;21790;42.668;23.298;2023-02-11T02:15:46;96312.75;;;5.18;33.97
35676;BME280;21790;42.668;23.298;2023-02-11T02:35:10;96300.56;;;5.04;33.79
35676;BME280;21790;42.668;23.298;2023-02-11T02:40:20;96301.31;;;4.94;34.32
35676;BME280;21790;42.668;23.298;2023-02-11T02:42:48;96298.56;;;4.94;33.93
35676;BME280;21790;42.668;23.298;2023-02-11T02:45:14;96304.00;;;4.84;34.00
35676;BME280;21790;42.668;23.298;2023-02-11T02:47:40;96295.41;;;4.89;33.84
35676;BME280;21790;42.668;23.298;2023-02-11T02:50:06;96293.88;;;4.95;33.91
35676;BME280;21790;42.668;23.298;2023-02-11T03:00:36;96308.34;;;4.99;33.02
35676;BME280;21790;42.668;23.298;2023-02-11T03:03:17;96297.41;;;4.99;33.66
35676;BME280;21790;42.668;23.298;2023-02-11T03:05:53;96304.50;;;5.07;33.37
35676;BME280;21790;42.668;23.298;2023-02-11T03:10:49;96295.78;;;4.84;33.43
35676;BME280;21790;42.668;23.298;2023-02-11T03:13:17;96304.00;;;4.84;33.51
35676;BME280;21790;42.668;23.298;2023-02-11T03:15:49;96291.88;;;4.88;33.73
35676;BME280;21790;42.668;23.298;2023-02-11T03:18:18;96306.66;;;4.66;34.15
35676;BME280;21790;42.668;23.298;2023-02-11T03:20:48;96300.13;;;4.95;33.45
35676;BME280;21790;42.668;23.298;2023-02-11T03:23:31;96297.03;;;5.00;33.52
35676;BME280;21790;42.668;23.298;2023-02-11T03:26:38;96298.56;;;4.94;33.49
35676;BME280;21790;42.668;23.298;2023-02-11T03:34:41;96298.19;;;5.03;33.24
35676;BME280;21790;42.668;23.298;2023-02-11T03:37:18;96290.69;;;4.82;33.57
35676;BME280;21790;42.668;23.298;2023-02-11T03:39:50;96291.50;;;4.90;33.19
35676;BME280;21790;42.668;23.298;2023-02-11T03:42:18;96295.41;;;4.85;33.18
35676;BME280;21790;42.668;23.298;2023-02-11T03:44:52;96297.81;;;5.08;32.83
35676;BME280;21790;42.668;23.298;2023-02-11T03:47:22;96293.09;;;4.94;33.45
35676;BME280;21790;42.668;23.298;2023-02-11T03:49:50;96294.91;;;4.69;33.75
35676;BME280;21790;42.668;23.298;2023-02-11T03:52:18;96299.59;;;4.61;34.01
35676;BME280;21790;42.668;23.298;2023-02-11T03:54:45;96298.44;;;4.70;33.74
35676;BME280;21790;42.668;23.298;2023-02-11T03:57:13;96297.97;;;4.53;33.68
35676;BME280;21790;42.668;23.298;2023-02-11T04:00:08;96288.56;;;4.47;34.06
35676;BME280;21790;42.668;23.298;2023-02-11T04:02:36;96301.19;;;4.66;33.98
35676;BME280;21790;42.668;23.298;2023-02-11T04:05:03;96302.75;;;4.63;33.90
35676;BME280;21790;42.668;23.298;2023-02-11T04:07:29;96298.41;;;4.59;33.58
35676;BME280;21790;42.668;23.298;2023-02-11T04:09:54;96294.03;;;4.47;33.33
35676;BME280;21790;42.668;23.298;2023-02-11T04:12:20;96296.75;;;4.47;33.86
35676;BME280;21790;42.668;23.298;2023-02-11T04:14:45;96297.56;;;4.48;33.89
35676;BME280;21790;42.668;23.298;2023-02-11T04:17:11;96297.47;;;4.34;34.59
35676;BME280;21790;42.668;23.298;2023-02-11T04:19:37;96301.38;;;4.29;34.30
35676;BME280;21790;42.668;23.298;2023-02-11T04:22:03;96295.28;;;4.60;33.66
35676;BME280;21790;42.668;23.298;2023-02-11T04:24:29;96297.59;;;4.55;33.33
35676;BME280;21790;42.668;23.298;2023-02-11T04:26:54;96298.63;;;4.29;34.00
35676;BME280;21790;42.668;23.298;2023-02-11T04:29:20;96296.28;;;4.31;34.12
35676;BME280;21790;42.668;23.298;2023-02-11T04:31:45;96287.75;;;4.40;34.15
35676;BME280;21790;42.668;23.298;2023-02-11T04:34:11;96295.16;;;4.36;33.96
35676;BME280;21790;42.668;23.298;2023-02-11T04:36:37;96290.06;;;4.38;34.39
35676;BME280;21790;42.668;23.298;2023-02-11T04:39:03;96284.53;;;4.27;34.52
35676;BME280;21790;42.668;23.298;2023-02-11T04:41:28;96284.09;;;4.18;34.82
35676;BME280;21790;42.668;23.298;2023-02-11T04:43:54;96283.31;;;4.14;34.64
35676;BME280;21790;42.668;23.298;2023-02-11T04:46:20;96280.75;;;3.88;34.63
35676;BME280;21790;42.668;23.298;2023-02-11T04:48:45;96289.03;;;3.95;35.07
35676;BME280;21790;42.668;23.298;2023-02-11T04:51:11;96283.81;;;4.34;34.13
35676;BME280;21790;42.668;23.298;2023-02-11T04:53:37;96294.38;;;4.35;34.12
35676;BME280;21790;42.668;23.298;2023-02-11T04:56:03;96283.38;;;4.25;34.36
35676;BME280;21790;42.668;23.298;2023-02-11T04:58:29;96286.03;;;4.14;33.96
35676;BME280;21790;42.668;23.298;2023-02-11T05:00:54;96293.38;;;4.03;34.38
35676;BME280;21790;42.668;23.298;2023-02-11T05:03:20;96290.91;;;4.45;34.26
35676;BME280;21790;42.668;23.298;2023-02-11T05:05:47;96282.69;;;4.45;33.87
35676;BME280;21790;42.668;23.298;2023-02-11T05:08:12;96273.75;;;4.52;33.52
35676;BME280;21790;42.668;23.298;2023-02-11T05:10:38;96265.63;;;4.77;33.87
35676;BME280;21790;42.668;23.298;2023-02-11T05:13:04;96267.16;;;4.63;33.46
35676;BME280;21790;42.668;23.298;2023-02-11T05:15:30;96267.91;;;4.57;33.36
35676;BME280;21790;42.668;23.298;2023-02-11T05:17:55;96271.69;;;4.38;34.29
35676;BME280;21790;42.668;23.298;2023-02-11T05:20:21;96269.47;;;4.61;33.72
35676;BME280;21790;42.668;23.298;2023-02-11T05:22:47;96263.22;;;4.61;33.18
35676;BME280;21790;42.668;23.298;2023-02-11T05:25:13;96269.34;;;4.33;33.73
35676;BME280;21790;42.668;23.298;2023-02-11T05:27:38;96270.06;;;4.27;33.96
35676;BME280;21790;42.668;23.298;2023-02-11T05:30:07;96277.59;;;4.47;33.98
35676;BME280;21790;42.668;23.298;2023-02-11T05:32:32;96271.75;;;4.45;33.69
35676;BME280;21790;42.668;23.298;2023-02-11T05:34:59;96274.53;;;4.52;33.64
35676;BME280;21790;42.668;23.298;2023-02-11T05:37:24;96271.69;;;4.38;33.42
35676;BME280;21790;42.668;23.298;2023-02-11T05:39:50;96273.28;;;4.43;33.91
35676;BME280;21790;42.668;23.298;2023-02-11T05:42:15;96274.84;;;4.40;33.65
35676;BME280;21790;42.668;23.298;2023-02-11T05:44:41;96274.06;;;4.40;33.65
35676;BME280;21790;42.668;23.298;2023-02-11T05:47:07;96278.53;;;4.04;34.29
35676;BME280;21790;42.668;23.298;2023-02-11T05:49:33;96275.41;;;4.02;34.32
35676;BME280;21790;42.668;23.298;2023-02-11T05:51:59;96279.72;;;4.06;34.95
35676;BME280;21790;42.668;23.298;2023-02-11T05:54:24;96273.09;;;4.11;34.27
35676;BME280;21790;42.668;23.298;2023-02-11T05:56:50;96277.19;;;4.38;34.10
35676;BME280;21790;42.668;23.298;2023-02-11T05:59:15;96279.38;;;4.11;34.59
35676;BME280;21790;42.668;23.298;2023-02-11T06:01:41;96281.44;;;4.29;34.41
35676;BME280;21790;42.668;23.298;2023-02-11T06:04:06;96279.66;;;4.64;33.84
35676;BME280;21790;42.668;23.298;2023-02-11T06:06:32;96283.13;;;4.54;34.31
35676;BME280;21790;42.668;23.298;2023-02-11T06:08:58;96276.53;;;4.62;34.23
35676;BME280;21790;42.668;23.298;2023-02-11T06:11:23;96288.38;;;4.95;33.90
35676;BME280;21790;42.668;23.298;2023-02-11T06:13:49;96286.84;;;5.08;33.79
35676;BME280;21790;42.668;23.298;2023-02-11T06:16:15;96281.44;;;5.33;33.79
35676;BME280;21790;42.668;23.298;2023-02-11T06:18:43;96288.91;;;5.46;33.53
35676;BME280;21790;42.668;23.298;2023-02-11T06:21:09;96292.44;;;5.58;33.28
35676;BME280;21790;42.668;23.298;2023-02-11T06:23:36;96287.34;;;5.74;33.12
35676;BME280;21790;42.668;23.298;2023-02-11T06:26:06;96285.03;;;5.97;32.91
35676;BME280;21790;42.668;23.298;2023-02-11T06:28:32;96295.63;;;6.09;32.36
35676;BME280;21790;42.668;23.298;2023-02-11T06:31:09;96272.81;;;6.34;32.33
35676;BME280;21790;42.668;23.298;2023-02-11T06:33:36;96283.84;;;6.26;32.29
35676;BME280;21790;42.668;23.298;2023-02-11T06:36:03;96293.59;;;6.45;32.19
35676;BME280;21790;42.668;23.298;2023-02-11T06:38:32;96284.09;;;9.99;49.07
35676;BME280;21790;42.668;23.298;2023-02-11T06:40:58;96284.22;;;10.15;36.59
35676;BME280;21790;42.668;23.298;2023-02-11T06:43:26;96287.00;;;10.38;34.04
35676;BME280;21790;42.668;23.298;2023-02-11T06:45:53;96286.19;;;10.41;31.60
35676;BME280;21790;42.668;23.298;2023-02-11T06:48:19;96287.31;;;10.64;30.96
35676;BME280;21790;42.668;23.298;2023-02-11T06:50:45;96284.03;;;10.92;30.65
35676;BME280;21790;42.668;23.298;2023-02-11T06:53:11;96289.44;;;10.99;32.16
35676;BME280;21790;42.668;23.298;2023-02-11T06:55:38;96288.91;;;11.44;29.54
35676;BME280;21790;42.668;23.298;2023-02-11T06:58:03;96281.47;;;10.81;27.02
35676;BME280;21790;42.668;23.298;2023-02-11T07:00:29;96295.75;;;9.87;27.03
35676;BME280;21790;42.668;23.298;2023-02-11T07:02:54;96297.72;;;9.59;27.45
35676;BME280;21790;42.668;23.298;2023-02-11T07:05:20;96297.81;;;8.92;28.11
35676;BME280;21790;42.668;23.298;2023-02-11T07:07:46;96295.16;;;8.81;28.70
35676;BME280;21790;42.668;23.298;2023-02-11T07:10:11;96285.91;;;8.64;28.70
35676;BME280;21790;42.668;23.298;2023-02-11T07:12:37;96295.88;;;8.51;29.77
35676;BME280;21790;42.668;23.298;2023-02-11T07:15:03;96283.50;;;8.25;29.17
35676;BME280;21790;42.668;23.298;2023-02-11T07:17:29;96294.56;;;8.22;29.82
35676;BME280;21790;42.668;23.298;2023-02-11T07:19:54;96281.28;;;8.10;29.85
35676;BME280;21790;42.668;23.298;2023-02-11T07:22:20;96282.81;;;8.14;29.76
35676;BME280;21790;42.668;23.298;2023-02-11T07:24:46;96278.16;;;8.08;29.86
35676;BME280;21790;42.668;23.298;2023-02-11T07:27:11;96274.56;;;8.14;29.79
35676;BME280;21790;42.668;23.298;2023-02-11T07:29:37;96277.44;;;7.52;30.61
35676;BME280;21790;42.668;23.298;2023-02-11T07:32:05;96274.44;;;7.84;30.27
35676;BME280;21790;42.668;23.298;2023-02-11T07:34:30;96261.00;;;7.41;30.50
35676;BME280;21790;42.668;23.298;2023-02-11T07:36:56;96265.00;;;7.85;30.05
35676;BME280;21790;42.668;23.298;2023-02-11T07:39:21;96265.41;;;8.28;30.27
35676;BME280;21790;42.668;23.298;2023-02-11T07:41:47;96260.22;;;8.37;29.59
35676;BME280;21790;42.668;23.298;2023-02-11T07:44:14;96253.34;;;8.52;29.56
35676;BME280;21790;42.668;23.298;2023-02-11T07:46:39;96248.69;;;8.46;29.47
35676;BME280;21790;42.668;23.298;2023-02-11T07:49:09;96252.09;;;8.60;29.62
35676;BME280;21790;42.668;23.298;2023-02-11T07:51:35;96255.22;;;8.62;29.13
35676;BME280;21790;42.668;23.298;2023-02-11T07:54:00;96252.38;;;8.69;28.69
35676;BME280;21790;42.668;23.298;2023-02-11T07:56:27;96253.31;;;8.90;28.49
35676;BME280;21790;42.668;23.298;2023-02-11T07:58:53;96247.81;;;9.20;28.83
35676;BME280;21790;42.668;23.298;2023-02-11T08:01:22;96239.16;;;9.18;28.60
35676;BME280;21790;42.668;23.298;2023-02-11T08:03:49;96246.03;;;12.49;32.94
35676;BME280;21790;42.668;23.298;2023-02-11T08:06:17;96240.66;;;13.92;29.61
35676;BME280;21790;42.668;23.298;2023-02-11T08:08:46;96234.19;;;14.07;27.29
35676;BME280;21790;42.668;23.298;2023-02-11T08:11:17;96241.44;;;14.05;28.58
35676;BME280;21790;42.668;23.298;2023-02-11T08:13:44;96239.13;;;13.78;25.99
35676;BME280;21790;42.668;23.298;2023-02-11T08:16:35;96233.22;;;14.01;23.63
35676;BME280;21790;42.668;23.298;2023-02-11T08:19:05;96232.69;;;13.56;23.44
35676;BME280;21790;42.668;23.298;2023-02-11T08:21:31;96235.66;;;12.94;23.78
35676;BME280;21790;42.668;23.298;2023-02-11T08:23:57;96237.66;;;12.36;24.81
35676;BME280;21790;42.668;23.298;2023-02-11T08:26:25;96235.72;;;12.33;24.28
35676;BME280;21790;42.668;23.298;2023-02-11T08:28:52;96245.03;;;11.06;25.63
35676;BME280;21790;42.668;23.298;2023-02-11T08:31:21;96235.81;;;10.93;26.30
35676;BME280;21790;42.668;23.298;2023-02-11T08:33:47;96235.56;;;11.23;26.51
35676;BME280;21790;42.668;23.298;2023-02-11T08:36:15;96240.91;;;10.95;26.19
35676;BME280;21790;42.668;23.298;2023-02-11T08:38:42;96238.66;;;10.27;27.58
35676;BME280;21790;42.668;23.298;2023-02-11T08:41:07;96236.53;;;10.11;27.51
35676;BME280;21790;42.668;23.298;2023-02-11T08:43:34;96241.59;;;10.59;28.25
35676;BME280;21790;42.668;23.298;2023-02-11T08:46:00;96241.97;;;11.01;27.90
35676;BME280;21790;42.668;23.298;2023-02-11T08:48:26;96244.44;;;11.15;27.90
35676;BME280;21790;42.668;23.298;2023-02-11T08:50:55;96233.41;;;11.31;27.60
35676;BME280;21790;42.668;23.298;2023-02-11T08:53:20;96244.34;;;11.18;27.20
35676;BME280;21790;42.668;23.298;2023-02-11T08:55:51;96247.34;;;11.27;27.09
35676;BME280;21790;42.668;23.298;2023-02-11T08:58:17;96248.81;;;10.96;27.59
35676;BME280;21790;42.668;23.298;2023-02-11T09:01:09;96236.59;;;11.29;27.16
35676;BME280;21790;42.668;23.298;2023-02-11T09:03:43;96235.25;;;10.62;28.40
35676;BME280;21790;42.668;23.298;2023-02-11T09:06:10;96238.34;;;11.23;27.94
35676;BME280;21790;42.668;23.298;2023-02-11T09:08:37;96228.13;;;11.72;26.71
35676;BME280;21790;42.668;23.298;2023-02-11T09:11:04;96238.78;;;11.90;26.62
35676;BME280;21790;42.668;23.298;2023-02-11T09:13:30;96232.44;;;12.22;25.58
35676;BME280;21790;42.668;23.298;2023-02-11T09:15:57;96229.59;;;12.26;25.89
35676;BME280;21790;42.668;23.298;2023-02-11T09:18:23;96227.84;;;11.51;26.47
35676;BME280;21790;42.668;23.298;2023-02-11T09:20:51;96227.34;;;11.56;25.79
35676;BME280;21790;42.668;23.298;2023-02-11T09:23:17;96226.25;;;11.86;26.03
35676;BME280;21790;42.668;23.298;2023-02-11T09:25:43;96220.88;;;12.27;31.47
35676;BME280;21790;42.668;23.298;2023-02-11T09:28:08;96219.78;;;12.66;25.23
35676;BME280;21790;42.668;23.298;2023-02-11T09:30:36;96219.31;;;12.55;25.24
35676;BME280;21790;42.668;23.298;2023-02-11T09:33:02;96213.22;;;12.60;25.20
35676;BME280;21790;42.668;23.298;2023-02-11T09:35:28;96212.97;;;12.83;25.05
35676;BME280;21790;42.668;23.298;2023-02-11T09:37:54;96210.88;;;12.87;24.47
35676;BME280;21790;42.668;23.298;2023-02-11T09:40:19;96212.09;;;13.28;24.36
35676;BME280;21790;42.668;23.298;2023-02-11T09:43:09;96212.53;;;13.14;24.67
35676;BME280;21790;42.668;23.298;2023-02-11T09:45:36;96203.66;;;13.19;24.47
35676;BME280;21790;42.668;23.298;2023-02-11T09:48:09;96199.88;;;13.13;24.57
35676;BME280;21790;42.668;23.298;2023-02-11T09:50:56;96185.16;;;12.87;24.62
35676;BME280;21790;42.668;23.298;2023-02-11T09:53:27;96195.28;;;12.65;24.30
35676;BME280;21790;42.668;23.298;2023-02-11T09:56:10;96187.34;;;12.22;25.20
35676;BME280;21790;42.668;23.298;2023-02-11T09:58:43;96184.44;;;12.41;25.37
35676;BME280;21790;42.668;23.298;2023-02-11T10:01:18;96176.91;;;12.71;24.50
35676;BME280;21790;42.668;23.298;2023-02-11T10:22:45;96129.91;;;13.43;23.04
35676;BME280;21790;42.668;23.298;2023-02-11T10:25:27;96110.81;;;13.32;22.53
35676;BME280;21790;42.668;23.298;2023-02-11T10:27:56;96109.03;;;13.26;23.19
35676;BME280;21790;42.668;23.298;2023-02-11T10:30:32;96097.88;;;13.76;22.89
35676;BME280;21790;42.668;23.298;2023-02-11T10:33:10;96093.94;;;13.52;22.14
35676;BME280;21790;42.668;23.298;2023-02-11T10:35:38;96096.03;;;13.10;22.96
35676;BME280;21790;42.668;23.298;2023-02-11T10:38:03;96074.34;;;13.68;22.82
35676;BME280;21790;42.668;23.298;2023-02-11T10:40:30;96071.16;;;13.57;22.67
35676;BME280;21790;42.668;23.298;2023-02-11T10:43:02;96066.59;;;13.51;22.76
35676;BME280;21790;42.668;23.298;2023-02-11T10:51:15;96060.50;;;14.12;21.44
35676;BME280;21790;42.668;23.298;2023-02-11T10:53:41;96054.44;;;13.70;21.75
35676;BME280;21790;42.668;23.298;2023-02-11T10:56:10;96043.06;;;13.43;21.61
35676;BME280;21790;42.668;23.298;2023-02-11T10:58:43;96039.69;;;13.95;22.03
35676;BME280;21790;42.668;23.298;2023-02-11T11:01:10;96043.44;;;13.66;22.38
35676;BME280;21790;42.668;23.298;2023-02-11T11:03:46;96025.16;;;13.91;22.20
35676;BME280;21790;42.668;23.298;2023-02-11T11:06:12;96036.03;;;13.63;22.47
35676;BME280;21790;42.668;23.298;2023-02-11T11:08:50;96030.03;;;13.87;22.47
35676;BME280;21790;42.668;23.298;2023-02-11T11:11:20;96028.09;;;13.74;22.86
35676;BME280;21790;42.668;23.298;2023-02-11T11:16:31;96016.91;;;13.87;22.05
35676;BME280;21790;42.668;23.298;2023-02-11T11:21:44;96019.06;;;14.05;22.80
35676;BME280;21790;42.668;23.298;2023-02-11T11:24:32;96016.72;;;14.25;22.07
35676;BME280;21790;42.668;23.298;2023-02-11T11:27:04;96019.03;;;14.39;22.46
35676;BME280;21790;42.668;23.298;2023-02-11T11:29:43;96011.44;;;14.61;21.54
35676;BME280;21790;42.668;23.298;2023-02-11T11:32:28;96003.75;;;14.75;21.65
35676;BME280;21790;42.668;23.298;2023-02-11T11:35:04;96006.84;;;14.77;21.72
35676;BME280;21790;42.668;23.298;2023-02-11T11:37:35;96003.34;;;14.54;21.78
35676;BME280;21790;42.668;23.298;2023-02-11T11:40:26;96000.56;;;14.33;21.81
35676;BME280;21790;42.668;23.298;2023-02-11T11:45:29;95996.41;;;14.59;21.23
35676;BME280;21790;42.668;23.298;2023-02-11T11:48:23;95992.75;;;14.71;21.34
35676;BME280;21790;42.668;23.298;2023-02-11T11:50:57;95987.00;;;14.65;21.58
35676;BME280;21790;42.668;23.298;2023-02-11T11:56:05;95991.00;;;14.55;21.68
35676;BME280;21790;42.668;23.298;2023-02-11T11:58:33;95980.53;;;14.69;21.07
35676;BME280;21790;42.668;23.298;2023-02-11T12:15:33;95953.81;;;14.80;21.42
35676;BME280;21790;42.668;23.298;2023-02-11T12:26:13;95924.56;;;14.67;20.79
35676;BME280;21790;42.668;23.298;2023-02-11T12:37:22;95914.06;;;14.61;21.05
35676;BME280;21790;42.668;23.298;2023-02-11T12:40:02;95922.69;;;14.63;20.17
35676;BME280;21790;42.668;23.298;2023-02-11T12:45:59;95904.34;;;14.84;20.22
35676;BME280;21790;42.668;23.298;2023-02-11T12:51:32;95897.22;;;14.74;21.10
35676;BME280;21790;42.668;23.298;2023-02-11T13:03:21;95881.72;;;14.55;21.07
35676;BME280;21790;42.668;23.298;2023-02-11T13:06:04;95885.31;;;14.64;20.93
35676;BME280;21790;42.668;23.298;2023-02-11T13:08:53;95881.13;;;14.60;21.34
35676;BME280;21790;42.668;23.298;2023-02-11T13:11:36;95871.00;;;15.12;21.54
35676;BME280;21790;42.668;23.298;2023-02-11T13:14:23;95879.97;;;14.88;21.06
35676;BME280;21790;42.668;23.298;2023-02-11T13:16:50;95873.56;;;14.60;20.51
35676;BME280;21790;42.668;23.298;2023-02-11T13:19:23;95873.72;;;14.66;20.73
35676;BME280;21790;42.668;23.298;2023-02-11T13:30:33;95870.47;;;14.68;21.27
35676;BME280;21790;42.668;23.298;2023-02-11T13:35:34;95867.56;;;14.00;21.37
35676;BME280;21790;42.668;23.298;2023-02-11T13:38:01;95862.28;;;13.71;21.47
35676;BME280;21790;42.668;23.298;2023-02-11T13:40:38;95854.06;;;13.90;21.17
35676;BME280;21790;42.668;23.298;2023-02-11T13:43:06;95869.34;;;13.85;21.16
35676;BME280;21790;42.668;23.298;2023-02-11T13:45:45;95858.47;;;13.78;21.27
35676;BME280;21790;42.668;23.298;2023-02-11T13:48:29;95852.66;;;13.85;20.94
35676;BME280;21790;42.668;23.298;2023-02-11T13:50:59;95850.41;;;13.71;20.88
35676;BME280;21790;42.668;23.298;2023-02-11T13:53:27;95848.44;;;13.50;20.72
35676;BME280;21790;42.668;23.298;2023-02-11T13:56:08;95849.84;;;13.54;20.88
35676;BME280;21790;42.668;23.298;2023-02-11T13:58:36;95849.25;;;13.37;21.00
35676;BME280;21790;42.668;23.298;2023-02-11T14:01:05;95835.69;;;13.18;20.99
35676;BME280;21790;42.668;23.298;2023-02-11T14:03:36;95845.72;;;13.03;20.95
35676;BME280;21790;42.668;23.298;2023-02-11T14:06:23;95840.81;;;13.19;21.04
35676;BME280;21790;42.668;23.298;2023-02-11T14:25:01;95823.84;;;13.05;21.92
35676;BME280;21790;42.668;23.298;2023-02-11T14:27:40;95828.56;;;12.82;22.20
35676;BME280;21790;42.668;23.298;2023-02-11T14:36:18;95822.22;;;12.94;22.12
35676;BME280;21790;42.668;23.298;2023-02-11T14:41:47;95832.06;;;12.61;23.03
35676;BME280;21790;42.668;23.298;2023-02-11T14:44:24;95832.91;;;12.49;23.02
35676;BME280;21790;42.668;23.298;2023-02-11T14:46:51;95823.59;;;12.18;23.29
35676;BME280;21790;42.668;23.298;2023-02-11T14:49:34;95836.69;;;12.17;23.23
35676;BME280;21790;42.668;23.298;2023-02-11T14:54:49;95832.91;;;12.24;23.14
35676;BME280;21790;42.668;23.298;2023-02-11T14:57:17;95832.47;;;12.25;23.04
35676;BME280;21790;42.668;23.298;2023-02-11T14:59:58;95833.34;;;12.35;23.20
35676;BME280;21790;42.668;23.298;2023-02-11T15:02:33;95832.81;;;12.14;23.27
35676;BME280;21790;42.668;23.298;2023-02-11T15:07:47;95826.97;;;12.00;23.46
35676;BME280;21790;42.668;23.298;2023-02-11T15:12:54;95823.41;;;11.99;23.60
35676;BME280;21790;42.668;23.298;2023-02-11T15:15:20;95819.81;;;11.73;23.88
35676;BME280;21790;42.668;23.298;2023-02-11T15:17:46;95825.09;;;11.68;24.19
35676;BME280;21790;42.668;23.298;2023-02-11T15:20:25;95812.22;;;11.78;24.17
35676;BME280;21790;42.668;23.298;2023-02-11T15:22:56;95814.59;;;11.63;24.17
35676;BME280;21790;42.668;23.298;2023-02-11T15:25:23;95806.91;;;11.29;24.77
35676;BME280;21790;42.668;23.298;2023-02-11T15:27:51;95805.19;;;11.60;24.49
35676;BME280;21790;42.668;23.298;2023-02-11T15:32:50;95787.22;;;11.40;24.33
35676;BME280;21790;42.668;23.298;2023-02-11T15:35:17;95797.59;;;11.36;24.43
35676;BME280;21790;42.668;23.298;2023-02-11T15:37:43;95798.53;;;11.45;24.57
35676;BME280;21790;42.668;23.298;2023-02-11T15:40:19;95788.91;;;11.50;24.71
35676;BME280;21790;42.668;23.298;2023-02-11T15:43:01;95793.31;;;11.35;25.31
35676;BME280;21790;42.668;23.298;2023-02-11T15:45:30;95801.41;;;11.13;25.48
35676;BME280;21790;42.668;23.298;2023-02-11T15:48:13;95807.22;;;11.31;25.34
35676;BME280;21790;42.668;23.298;2023-02-11T15:50:41;95803.44;;;11.12;25.64
35676;BME280;21790;42.668;23.298;2023-02-11T15:55:41;95800.31;;;10.81;26.00
35676;BME280;21790;42.668;23.298;2023-02-11T15:58:08;95800.03;;;10.92;26.26
35676;BME280;21790;42.668;23.298;2023-02-11T16:00:37;95810.81;;;10.74;26.15
35676;BME280;21790;42.668;23.298;2023-02-11T16:03:27;95810.53;;;10.97;25.99
35676;BME280;21790;42.668;23.298;2023-02-11T16:06:13;95807.81;;;10.81;26.23